createdAt,value
2023-08-15T00:00:29.176Z,17.80
2023-08-15T00:02:56.271Z,17.70
2023-08-15T00:05:23.392Z,17.70
2023-08-15T00:07:50.673Z,17.70
2023-08-15T00:10:17.768Z,17.60
2023-08-15T00:12:44.777Z,17.50
2023-08-15T00:15:12.340Z,17.50
2023-08-15T00:17:39.293Z,17.40
2023-08-15T00:20:07.864Z,17.40
2023-08-15T00:22:34.822Z,17.40
2023-08-15T00:25:01.864Z,17.40
2023-08-15T00:27:28.963Z,17.40
2023-08-15T00:29:56.155Z,17.40
2023-08-15T00:32:23.194Z,17.40
2023-08-15T00:34:50.227Z,17.30
2023-08-15T00:37:17.198Z,17.30
2023-08-15T00:39:44.217Z,17.30
2023-08-15T00:42:11.280Z,17.30
2023-08-15T00:44:42.128Z,17.30
2023-08-15T00:47:09.414Z,17.20
2023-08-15T00:49:36.512Z,17.20
2023-08-15T00:52:05.049Z,17.20
2023-08-15T00:54:32.442Z,17.10
2023-08-15T00:56:59.560Z,17.10
2023-08-15T00:59:26.617Z,17.00
2023-08-15T01:01:53.824Z,16.90
2023-08-15T01:04:21.526Z,16.90
2023-08-15T01:06:50.138Z,16.90
2023-08-15T01:09:17.144Z,16.90
2023-08-15T01:12:08.403Z,16.90
2023-08-15T01:14:56.626Z,17.00
2023-08-15T01:18:05.925Z,17.10
2023-08-15T01:20:36.746Z,17.20
2023-08-15T01:23:07.698Z,17.20
2023-08-15T01:25:44.123Z,17.20
2023-08-15T01:28:16.479Z,17.20
2023-08-15T01:30:57.596Z,17.20
2023-08-15T01:34:18.365Z,17.20
2023-08-15T01:36:59.143Z,17.30
2023-08-15T01:39:30.786Z,17.40
2023-08-15T01:42:04.209Z,17.40
2023-08-15T01:44:32.311Z,17.40
2023-08-15T01:46:59.662Z,17.50
2023-08-15T01:49:26.618Z,17.50
2023-08-15T01:51:55.523Z,17.60
2023-08-15T01:54:22.830Z,17.60
2023-08-15T01:56:49.865Z,17.50
2023-08-15T01:59:16.822Z,17.50
2023-08-15T02:01:43.937Z,17.50
2023-08-15T02:04:10.999Z,17.40
2023-08-15T02:06:38.025Z,17.30
2023-08-15T02:09:06.086Z,17.30
2023-08-15T02:11:33.103Z,17.20
2023-08-15T02:14:00.212Z,17.10
2023-08-15T02:16:27.248Z,17.10
2023-08-15T02:18:54.286Z,17.00
2023-08-15T02:21:21.352Z,17.00
2023-08-15T02:23:48.372Z,16.90
2023-08-15T02:26:15.331Z,16.80
2023-08-15T02:28:42.361Z,16.80
2023-08-15T02:31:11.609Z,16.80
2023-08-15T02:33:41.766Z,16.80
2023-08-15T02:36:09.405Z,16.70
2023-08-15T02:38:36.710Z,16.70
2023-08-15T02:41:03.823Z,16.70
2023-08-15T02:43:31.295Z,16.60
2023-08-15T02:45:59.348Z,16.60
2023-08-15T02:48:26.454Z,16.50
2023-08-15T02:50:53.520Z,16.50
2023-08-15T02:53:20.602Z,16.40
2023-08-15T02:55:51.924Z,16.40
2023-08-15T02:58:19.478Z,16.30
2023-08-15T03:00:46.670Z,16.30
2023-08-15T03:03:13.705Z,16.20
2023-08-15T03:05:40.831Z,16.20
2023-08-15T03:08:07.903Z,16.20
2023-08-15T03:10:37.516Z,16.20
2023-08-15T03:13:05.099Z,16.20
2023-08-15T03:15:32.063Z,16.30
2023-08-15T03:17:59.139Z,16.30
2023-08-15T03:20:27.046Z,16.40
2023-08-15T03:22:54.077Z,16.40
2023-08-15T03:25:21.114Z,16.40
2023-08-15T03:27:48.090Z,16.50
2023-08-15T03:30:15.226Z,16.50
2023-08-15T03:32:42.306Z,16.50
2023-08-15T03:35:09.453Z,16.60
2023-08-15T03:37:36.878Z,16.60
2023-08-15T03:40:05.135Z,16.60
2023-08-15T03:42:32.267Z,16.60
2023-08-15T03:44:59.256Z,16.60
2023-08-15T03:47:26.330Z,16.60
2023-08-15T03:49:53.511Z,16.60
2023-08-15T03:52:20.439Z,16.60
2023-08-15T03:54:47.495Z,16.60
2023-08-15T03:57:14.430Z,16.60
2023-08-15T03:59:41.448Z,16.60
2023-08-15T04:02:08.496Z,16.60
2023-08-15T04:04:36.551Z,16.60
2023-08-15T04:07:05.025Z,16.70
2023-08-15T04:09:32.048Z,16.70
2023-08-15T04:11:59.138Z,16.70
2023-08-15T04:14:26.194Z,16.80
2023-08-15T04:16:53.249Z,16.80
2023-08-15T04:19:20.257Z,16.80
2023-08-15T04:21:47.304Z,16.80
2023-08-15T04:24:14.322Z,16.90
2023-08-15T04:26:41.404Z,16.90
2023-08-15T04:29:08.425Z,16.90
2023-08-15T04:31:35.654Z,17.00
2023-08-15T04:34:02.784Z,17.00
2023-08-15T04:36:29.766Z,17.00
2023-08-15T04:38:56.784Z,17.00
2023-08-15T04:41:23.825Z,17.10
2023-08-15T04:43:50.849Z,17.10
2023-08-15T04:46:17.901Z,17.10
2023-08-15T04:48:44.904Z,17.10
2023-08-15T04:51:12.749Z,17.10
2023-08-15T04:53:40.349Z,17.20
2023-08-15T04:56:07.474Z,17.20
2023-08-15T04:58:34.512Z,17.20
2023-08-15T05:01:01.617Z,17.30
2023-08-15T05:03:28.757Z,17.30
2023-08-15T05:05:55.780Z,17.40
2023-08-15T05:08:22.871Z,17.50
2023-08-15T05:10:49.907Z,17.50
2023-08-15T05:13:16.981Z,17.60
2023-08-15T05:15:44.110Z,17.60
2023-08-15T05:18:12.653Z,17.70
2023-08-15T05:20:40.024Z,17.70
2023-08-15T05:23:07.313Z,17.70
2023-08-15T05:25:34.363Z,17.80
2023-08-15T05:28:05.885Z,17.80
2023-08-15T05:30:33.477Z,17.80
2023-08-15T05:33:01.526Z,17.80
2023-08-15T05:35:29.958Z,17.90
2023-08-15T05:37:57.203Z,17.90
2023-08-15T05:40:24.281Z,18.00
2023-08-15T05:42:51.327Z,18.00
2023-08-15T05:45:18.376Z,18.10
2023-08-15T05:47:45.485Z,18.20
2023-08-15T05:50:12.626Z,18.20
2023-08-15T05:52:39.585Z,18.20
2023-08-15T05:55:07.407Z,18.30
2023-08-15T05:57:35.435Z,18.30
2023-08-15T06:00:09.637Z,18.30
2023-08-15T06:02:39.941Z,18.30
2023-08-15T06:05:08.179Z,18.40
2023-08-15T06:07:35.268Z,18.50
2023-08-15T06:10:02.658Z,18.60
2023-08-15T06:12:29.672Z,18.70
2023-08-15T06:14:56.736Z,18.70
2023-08-15T06:17:24.093Z,18.70
2023-08-15T06:19:51.447Z,18.70
2023-08-15T06:22:19.513Z,18.80
2023-08-15T06:24:46.595Z,18.80
2023-08-15T06:27:13.707Z,18.80
2023-08-15T06:29:40.741Z,18.90
2023-08-15T06:32:25.391Z,18.90
2023-08-15T06:35:06.769Z,19.00
2023-08-15T06:37:33.942Z,19.10
2023-08-15T06:40:01.016Z,19.20
2023-08-15T06:42:28.054Z,19.30
2023-08-15T06:45:12.590Z,19.30
2023-08-15T06:47:40.827Z,19.40
2023-08-15T06:50:09.598Z,19.50
2023-08-15T06:52:37.573Z,19.50
2023-08-15T06:55:05.194Z,19.60
2023-08-15T06:57:41.392Z,19.70
2023-08-15T07:00:12.999Z,19.70
2023-08-15T07:02:42.209Z,19.80
2023-08-15T07:05:11.718Z,19.90
2023-08-15T07:07:38.781Z,20.00
2023-08-15T07:10:07.815Z,20.20
2023-08-15T07:12:35.339Z,20.40
2023-08-15T07:15:03.401Z,20.50
2023-08-15T07:17:30.443Z,20.60
2023-08-15T07:19:57.636Z,20.60
2023-08-15T07:22:24.696Z,20.70
2023-08-15T07:24:52.796Z,20.80
2023-08-15T07:27:20.105Z,20.80
2023-08-15T07:29:47.109Z,20.80
2023-08-15T07:32:14.171Z,20.90
2023-08-15T07:34:42.018Z,20.90
2023-08-15T07:37:09.354Z,20.90
2023-08-15T07:39:36.374Z,21.00
2023-08-15T07:42:03.525Z,21.10
2023-08-15T07:44:31.501Z,21.20
2023-08-15T07:46:58.568Z,21.20
2023-08-15T07:49:25.554Z,21.20
2023-08-15T07:51:54.178Z,21.30
2023-08-15T07:54:21.307Z,21.40
2023-08-15T07:56:48.385Z,21.70
2023-08-15T07:59:15.691Z,22.20
2023-08-15T08:01:42.955Z,22.70
2023-08-15T08:04:09.980Z,23.70
2023-08-15T08:06:41.028Z,24.10
2023-08-15T08:09:09.903Z,24.40
2023-08-15T08:11:37.196Z,24.60
2023-08-15T08:14:07.339Z,24.90
2023-08-15T08:16:34.399Z,24.90
2023-08-15T08:19:01.479Z,24.80
2023-08-15T08:21:28.545Z,24.60
2023-08-15T08:23:56.689Z,24.20
2023-08-15T08:26:23.763Z,24.00
2023-08-15T08:28:51.349Z,24.10
2023-08-15T08:31:18.802Z,24.40
2023-08-15T08:33:45.798Z,24.20
2023-08-15T08:36:12.825Z,24.00
2023-08-15T08:38:39.884Z,23.80
2023-08-15T08:41:06.995Z,24.00
2023-08-15T08:43:35.131Z,24.20
2023-08-15T08:46:05.218Z,24.20
2023-08-15T08:48:34.921Z,24.40
2023-08-15T08:51:03.603Z,24.40
2023-08-15T08:53:30.696Z,24.10
2023-08-15T08:55:58.100Z,24.00
2023-08-15T08:58:28.440Z,24.10
2023-08-15T09:00:55.689Z,24.20
2023-08-15T09:03:23.058Z,24.20
2023-08-15T09:05:50.246Z,24.50
2023-08-15T09:08:17.286Z,24.70
2023-08-15T09:10:45.661Z,24.80
2023-08-15T09:13:12.737Z,25.00
2023-08-15T09:15:41.748Z,25.20
2023-08-15T09:18:09.230Z,25.30
2023-08-15T09:20:48.120Z,25.40
2023-08-15T09:23:17.448Z,25.40
2023-08-15T09:25:44.555Z,25.40
2023-08-15T09:28:12.743Z,25.20
2023-08-15T09:30:51.253Z,24.80
2023-08-15T09:33:18.316Z,24.50
2023-08-15T09:35:57.914Z,24.40
2023-08-15T09:38:27.171Z,24.60
2023-08-15T09:40:54.820Z,24.50
2023-08-15T09:43:22.854Z,23.90
2023-08-15T09:45:53.911Z,23.70
2023-08-15T09:48:22.522Z,23.60
2023-08-15T09:50:50.290Z,23.70
2023-08-15T09:53:17.447Z,23.60
2023-08-15T09:55:44.604Z,23.70
2023-08-15T09:58:11.866Z,23.70
2023-08-15T10:00:40.145Z,23.70
2023-08-15T10:03:33.340Z,23.60
2023-08-15T10:06:02.461Z,23.50
2023-08-15T10:08:31.280Z,23.60
2023-08-15T10:10:59.954Z,23.70
2023-08-15T10:13:32.564Z,23.90
2023-08-15T10:16:00.547Z,23.90
2023-08-15T10:18:27.727Z,24.00
2023-08-15T10:20:58.094Z,23.90
2023-08-15T10:23:30.355Z,23.90
2023-08-15T10:25:59.192Z,24.10
2023-08-15T10:28:31.236Z,24.20
2023-08-15T10:30:58.675Z,24.10
2023-08-15T10:33:30.829Z,24.00
2023-08-15T10:35:57.824Z,23.90
2023-08-15T10:38:36.341Z,23.90
2023-08-15T10:41:06.607Z,24.10
2023-08-15T10:43:37.664Z,24.10
2023-08-15T10:46:07.371Z,24.40
2023-08-15T10:48:55.523Z,24.50
2023-08-15T10:51:34.614Z,24.70
2023-08-15T10:54:13.115Z,25.00
2023-08-15T10:56:42.077Z,25.70
2023-08-15T10:59:15.487Z,26.20
2023-08-15T11:01:45.241Z,26.50
2023-08-15T11:04:20.933Z,26.40
2023-08-15T11:06:50.698Z,26.00
2023-08-15T11:09:18.757Z,26.10
2023-08-15T11:11:47.152Z,26.30
2023-08-15T11:14:20.936Z,26.10
2023-08-15T11:16:50.048Z,25.90
2023-08-15T11:19:19.748Z,25.50
2023-08-15T11:21:49.212Z,25.20
2023-08-15T11:24:16.593Z,25.10
2023-08-15T11:26:45.561Z,25.70
2023-08-15T11:29:14.274Z,26.30
2023-08-15T11:31:42.861Z,26.80
2023-08-15T11:34:12.434Z,26.60
2023-08-15T11:36:40.209Z,25.80
2023-08-15T11:39:12.766Z,25.30
2023-08-15T11:41:40.662Z,25.20
2023-08-15T11:44:10.815Z,24.90
2023-08-15T11:46:52.780Z,24.90
2023-08-15T11:49:23.396Z,25.30
2023-08-15T11:51:51.021Z,25.70
2023-08-15T11:54:18.244Z,26.00
2023-08-15T11:56:53.495Z,25.80
2023-08-15T11:59:20.845Z,26.30
2023-08-15T12:01:49.313Z,26.80
2023-08-15T12:04:20.405Z,27.10
2023-08-15T12:06:51.998Z,27.20
2023-08-15T12:09:19.379Z,27.40
2023-08-15T12:11:48.413Z,27.30
2023-08-15T12:14:23.658Z,27.20
2023-08-15T12:16:50.821Z,27.20
2023-08-15T12:19:21.835Z,26.90
2023-08-15T12:21:54.320Z,27.10
2023-08-15T12:24:22.467Z,27.30
2023-08-15T12:26:49.435Z,26.70
2023-08-15T12:29:18.238Z,26.70
2023-08-15T12:31:46.007Z,26.90
2023-08-15T12:34:13.342Z,27.00
2023-08-15T12:36:40.540Z,27.20
2023-08-15T12:39:08.285Z,27.30
2023-08-15T12:41:35.448Z,27.20
2023-08-15T12:44:02.459Z,26.70
2023-08-15T12:46:29.692Z,26.40
2023-08-15T12:49:00.117Z,26.40
2023-08-15T12:51:27.250Z,26.60
2023-08-15T12:53:54.500Z,26.70
2023-08-15T12:56:21.623Z,26.60
2023-08-15T12:58:48.713Z,26.30
2023-08-15T13:01:15.797Z,26.20
2023-08-15T13:03:43.781Z,26.20
2023-08-15T13:06:11.286Z,26.00
2023-08-15T13:08:38.348Z,25.90
2023-08-15T13:11:05.860Z,25.80
2023-08-15T13:13:32.929Z,26.30
2023-08-15T13:15:59.949Z,26.90
2023-08-15T13:18:26.998Z,27.30
2023-08-15T13:20:54.286Z,27.50
2023-08-15T13:23:22.674Z,27.20
2023-08-15T13:25:49.671Z,26.80
2023-08-15T13:28:16.882Z,26.60
2023-08-15T13:30:43.956Z,26.40
2023-08-15T13:33:11.110Z,26.30
2023-08-15T13:35:38.274Z,26.40
2023-08-15T13:38:05.479Z,26.60
2023-08-15T13:40:32.539Z,26.90
2023-08-15T13:43:00.349Z,26.80
2023-08-15T13:45:27.599Z,26.60
2023-08-15T13:47:54.666Z,26.30
2023-08-15T13:50:21.815Z,26.20
2023-08-15T13:52:48.794Z,26.50
2023-08-15T13:55:16.474Z,26.80
2023-08-15T13:57:44.189Z,27.10
2023-08-15T14:00:12.101Z,27.10
2023-08-15T14:02:39.244Z,26.80
2023-08-15T14:05:07.039Z,26.60
2023-08-15T14:07:36.047Z,26.80
2023-08-15T14:10:04.274Z,26.70
2023-08-15T14:12:31.353Z,26.50
2023-08-15T14:14:58.379Z,26.60
2023-08-15T14:17:25.338Z,26.70
2023-08-15T14:19:52.282Z,27.20
2023-08-15T14:22:19.523Z,27.10
2023-08-15T14:24:49.847Z,27.30
2023-08-15T14:27:18.850Z,27.30
2023-08-15T14:29:48.964Z,27.40
2023-08-15T14:32:16.032Z,27.20
2023-08-15T14:34:43.186Z,26.90
2023-08-15T14:37:13.243Z,26.70
2023-08-15T14:39:40.307Z,26.40
2023-08-15T14:42:07.416Z,26.30
2023-08-15T14:44:35.583Z,26.50
2023-08-15T14:47:02.746Z,26.60
2023-08-15T14:49:29.734Z,26.70
2023-08-15T14:51:56.854Z,26.80
2023-08-15T14:54:24.238Z,27.00
2023-08-15T14:56:51.284Z,27.10
2023-08-15T14:59:18.700Z,27.20
2023-08-15T15:01:45.819Z,26.90
2023-08-15T15:04:12.822Z,27.00
2023-08-15T15:06:39.888Z,27.10
2023-08-15T15:09:06.919Z,27.20
2023-08-15T15:11:34.022Z,27.10
2023-08-15T15:14:01.776Z,27.10
2023-08-15T15:16:28.834Z,26.90
2023-08-15T15:18:56.027Z,26.70
2023-08-15T15:21:23.122Z,26.30
2023-08-15T15:23:50.181Z,26.10
2023-08-15T15:26:17.317Z,26.00
2023-08-15T15:28:44.374Z,25.90
2023-08-15T15:31:11.859Z,25.80
2023-08-15T15:33:38.870Z,26.00
2023-08-15T15:36:05.989Z,26.20
2023-08-15T15:38:33.050Z,26.30
2023-08-15T15:41:00.063Z,26.50
2023-08-15T15:43:28.119Z,26.50
2023-08-15T15:45:55.164Z,26.30
2023-08-15T15:48:22.265Z,26.20
2023-08-15T15:50:49.305Z,25.90
2023-08-15T15:53:16.476Z,25.70
2023-08-15T15:55:44.315Z,25.50
2023-08-15T15:58:13.333Z,25.40
2023-08-15T16:00:40.485Z,25.30
2023-08-15T16:03:07.538Z,25.50
2023-08-15T16:05:34.676Z,25.70
2023-08-15T16:08:01.729Z,25.80
2023-08-15T16:10:28.767Z,25.90
2023-08-15T16:12:55.788Z,26.00
2023-08-15T16:15:22.802Z,25.90
2023-08-15T16:17:50.209Z,25.80
2023-08-15T16:20:17.357Z,25.70
2023-08-15T16:22:44.463Z,25.60
2023-08-15T16:25:11.658Z,25.60
2023-08-15T16:27:38.667Z,25.50
2023-08-15T16:30:17.276Z,25.40
2023-08-15T16:32:48.784Z,25.50
2023-08-15T16:35:16.945Z,25.30
2023-08-15T16:37:46.407Z,25.20
2023-08-15T16:40:13.922Z,25.10
2023-08-15T16:42:40.988Z,25.00
2023-08-15T16:45:08.842Z,24.80
2023-08-15T16:47:35.919Z,24.80
2023-08-15T16:50:03.017Z,24.90
2023-08-15T16:52:30.003Z,24.90
2023-08-15T16:54:56.921Z,24.90
2023-08-15T16:57:24.685Z,24.90
2023-08-15T16:59:51.758Z,24.80
2023-08-15T17:02:19.200Z,24.60
2023-08-15T17:04:46.296Z,24.50
2023-08-15T17:07:13.281Z,24.40
2023-08-15T17:09:40.440Z,24.20
2023-08-15T17:12:07.828Z,24.10
2023-08-15T17:14:34.829Z,24.10
2023-08-15T17:17:02.159Z,24.20
2023-08-15T17:19:29.210Z,24.20
2023-08-15T17:21:56.175Z,24.20
2023-08-15T17:24:23.314Z,24.10
2023-08-15T17:26:50.378Z,23.90
2023-08-15T17:29:17.404Z,23.80
2023-08-15T17:31:44.435Z,23.70
2023-08-15T17:34:11.616Z,23.60
2023-08-15T17:36:38.669Z,23.50
2023-08-15T17:39:06.057Z,23.30
2023-08-15T17:41:33.014Z,23.20
2023-08-15T17:44:00.536Z,23.10
2023-08-15T17:46:27.574Z,23.10
2023-08-15T17:48:54.582Z,23.00
2023-08-15T17:51:23.139Z,23.00
2023-08-15T17:53:51.184Z,22.90
2023-08-15T17:56:19.421Z,22.80
2023-08-15T17:58:51.415Z,22.70
2023-08-15T18:01:19.558Z,22.60
2023-08-15T18:03:48.266Z,22.60
2023-08-15T18:06:16.270Z,22.50
2023-08-15T18:08:43.678Z,22.40
2023-08-15T18:11:11.457Z,22.30
2023-08-15T18:13:39.939Z,22.30
2023-08-15T18:16:08.873Z,22.20
2023-08-15T18:18:38.015Z,22.20
2023-08-15T18:21:05.365Z,22.10
2023-08-15T18:23:32.371Z,22.00
2023-08-15T18:25:59.656Z,22.00
2023-08-15T18:28:27.941Z,21.90
2023-08-15T18:30:55.774Z,21.90
2023-08-15T18:33:23.178Z,21.90
2023-08-15T18:35:54.730Z,21.90
2023-08-15T18:38:22.133Z,21.90
2023-08-15T18:40:49.353Z,21.80
2023-08-15T18:43:16.570Z,21.80
2023-08-15T18:45:47.172Z,21.70
2023-08-15T18:48:21.953Z,21.70
2023-08-15T18:50:49.174Z,21.70
2023-08-15T18:53:16.495Z,21.60
2023-08-15T18:55:43.562Z,21.60
2023-08-15T18:58:11.520Z,21.60
2023-08-15T19:00:39.311Z,21.50
2023-08-15T19:03:06.937Z,21.50
2023-08-15T19:05:34.363Z,21.40
2023-08-15T19:08:01.664Z,21.30
2023-08-15T19:10:28.818Z,21.20
2023-08-15T19:12:55.920Z,21.10
2023-08-15T19:15:23.363Z,21.10
2023-08-15T19:17:51.951Z,21.00
2023-08-15T19:20:23.232Z,21.00
2023-08-15T19:22:51.293Z,20.90
2023-08-15T19:25:18.372Z,20.90
2023-08-15T19:27:48.587Z,20.90
2023-08-15T19:30:16.427Z,20.80
2023-08-15T19:32:43.462Z,20.70
2023-08-15T19:35:10.653Z,20.60
2023-08-15T19:37:38.756Z,20.60
2023-08-15T19:40:09.904Z,20.50
2023-08-15T19:42:43.721Z,20.50
2023-08-15T19:45:14.469Z,20.50
2023-08-15T19:47:42.815Z,20.40
2023-08-15T19:50:10.973Z,20.40
2023-08-15T19:52:38.344Z,20.30
2023-08-15T19:55:06.200Z,20.30
2023-08-15T19:57:33.734Z,20.30
2023-08-15T20:00:01.065Z,20.30
2023-08-15T20:02:28.309Z,20.20
2023-08-15T20:04:56.402Z,20.30
2023-08-15T20:07:23.728Z,20.20
2023-08-15T20:10:04.020Z,20.10
2023-08-15T20:12:37.418Z,20.10
2023-08-15T20:15:05.223Z,20.00
2023-08-15T20:17:32.337Z,20.00
2023-08-15T20:19:59.497Z,19.90
2023-08-15T20:22:26.971Z,19.80
2023-08-15T20:24:54.777Z,19.80
2023-08-15T20:27:22.037Z,19.70
2023-08-15T20:29:51.710Z,19.60
2023-08-15T20:32:18.931Z,19.50
2023-08-15T20:34:46.030Z,19.50
2023-08-15T20:37:13.829Z,19.40
2023-08-15T20:39:40.906Z,19.20
2023-08-15T20:42:09.914Z,19.10
2023-08-15T20:44:37.102Z,19.00
2023-08-15T20:47:04.619Z,18.90
2023-08-15T20:49:31.779Z,18.70
2023-08-15T20:51:59.059Z,18.60
2023-08-15T20:54:26.137Z,18.60
2023-08-15T20:56:53.129Z,18.60
2023-08-15T20:59:20.189Z,18.70
2023-08-15T21:01:47.286Z,18.70
2023-08-15T21:04:14.423Z,18.70
2023-08-15T21:06:41.456Z,18.70
2023-08-15T21:09:09.310Z,18.70
2023-08-15T21:11:36.330Z,18.70
2023-08-15T21:14:04.176Z,18.70
2023-08-15T21:16:31.259Z,18.70
2023-08-15T21:18:59.226Z,18.70
2023-08-15T21:21:26.611Z,18.80
2023-08-15T21:23:53.904Z,18.80
2023-08-15T21:26:21.097Z,18.90
2023-08-15T21:28:48.067Z,18.90
2023-08-15T21:31:15.131Z,18.80
2023-08-15T21:33:42.273Z,18.70
2023-08-15T21:36:09.381Z,18.70
2023-08-15T21:38:36.485Z,18.60
2023-08-15T21:41:03.508Z,18.60
2023-08-15T21:43:30.939Z,18.60
2023-08-15T21:45:57.989Z,18.60
2023-08-15T21:48:25.100Z,18.50
2023-08-15T21:50:52.156Z,18.50
2023-08-15T21:53:19.116Z,18.50
2023-08-15T21:55:46.251Z,18.50
2023-08-15T21:58:13.242Z,18.50
2023-08-15T22:00:40.900Z,18.50
2023-08-15T22:03:08.040Z,18.50
2023-08-15T22:05:35.473Z,18.40
2023-08-15T22:08:02.417Z,18.40
2023-08-15T22:10:29.464Z,18.40
2023-08-15T22:12:56.537Z,18.40
2023-08-15T22:15:25.768Z,18.40
2023-08-15T22:18:13.236Z,18.50
2023-08-15T22:20:47.065Z,18.50
2023-08-15T22:23:14.200Z,18.50
2023-08-15T22:25:48.487Z,18.50
2023-08-15T22:28:16.555Z,18.50
2023-08-15T22:30:43.868Z,18.50
2023-08-15T22:33:10.904Z,18.60
2023-08-15T22:35:42.911Z,18.60
2023-08-15T22:38:10.392Z,18.60
2023-08-15T22:40:37.572Z,18.50
2023-08-15T22:43:06.159Z,18.50
2023-08-15T22:45:33.442Z,18.50
2023-08-15T22:48:00.626Z,18.50
2023-08-15T22:50:27.743Z,18.40
2023-08-15T22:52:58.367Z,18.40
2023-08-15T22:55:25.596Z,18.30
2023-08-15T22:57:52.653Z,18.30
2023-08-15T23:00:19.714Z,18.20
2023-08-15T23:02:46.869Z,18.20
2023-08-15T23:05:14.137Z,18.00
2023-08-15T23:07:42.324Z,18.00
2023-08-15T23:10:09.766Z,17.90
2023-08-15T23:12:36.754Z,17.80
2023-08-15T23:15:08.630Z,17.80
2023-08-15T23:17:36.768Z,17.70
2023-08-15T23:20:04.206Z,17.70
2023-08-15T23:22:31.316Z,17.70
2023-08-15T23:24:58.356Z,17.60
2023-08-15T23:27:25.936Z,17.60
2023-08-15T23:29:53.286Z,17.70
2023-08-15T23:32:21.361Z,17.70
2023-08-15T23:34:48.345Z,17.70
2023-08-15T23:37:15.413Z,17.80
2023-08-15T23:39:42.826Z,17.80
2023-08-15T23:42:09.817Z,17.80
2023-08-15T23:44:36.874Z,17.80
2023-08-15T23:47:04.451Z,17.80
2023-08-15T23:49:31.366Z,17.80
2023-08-15T23:51:58.461Z,17.90
2023-08-15T23:54:25.646Z,17.90
2023-08-15T23:56:52.737Z,17.90
2023-08-15T23:59:19.738Z,17.90
